Time;durP1;ratioP1;P1;durP2;ratioP2;P2;SDS_P1;SDS_P2;PMS_P1;PMS_P2;Temp;Humidity;BMP_temperature;BMP_pressure;BME280_temperature;BME280_humidity;BME280_pressure;Samples;Min_cycle;Max_cycle;Signal;HPM_P1;HPM_P2
2022/08/01 00:02:16;;;;;;;5.53;2.00;;;18.00;99.90;;;;;;4896275;29;20079;-77
2022/08/01 00:05:02;;;;;;;6.50;2.10;;;18.00;99.90;;;;;;4895047;29;20061;-77
2022/08/01 00:07:48;;;;;;;5.60;2.58;;;18.00;99.90;;;;;;4879034;29;20053;-80
2022/08/01 00:10:35;;;;;;;5.05;2.15;;;18.00;99.90;;;;;;4895449;29;20056;-79
2022/08/01 00:13:21;;;;;;;4.13;1.80;;;17.90;99.90;;;;;;4879241;29;20056;-77
2022/08/01 00:16:07;;;;;;;7.88;2.00;;;17.90;99.90;;;;;;4879844;29;20163;-77
2022/08/01 00:18:54;;;;;;;6.93;2.03;;;18.00;99.90;;;;;;4895112;29;20064;-78
2022/08/01 00:21:42;;;;;;;8.27;2.13;;;17.90;99.90;;;;;;4895674;29;20131;-80
2022/08/01 00:24:28;;;;;;;7.72;2.05;;;18.00;99.90;;;;;;4896416;29;20056;-78
2022/08/01 00:27:14;;;;;;;4.25;2.00;;;17.90;99.90;;;;;;4879918;29;20056;-79
2022/08/01 00:30:00;;;;;;;7.57;2.50;;;17.90;99.90;;;;;;4896394;29;20049;-79
2022/08/01 00:32:46;;;;;;;5.45;1.83;;;17.90;99.90;;;;;;4879318;29;20529;-77
2022/08/01 00:35:33;;;;;;;5.18;1.40;;;17.90;99.90;;;;;;4878952;29;20095;-78
2022/08/01 00:38:19;;;;;;;3.17;1.38;;;17.80;99.90;;;;;;4879469;29;20135;-78
2022/08/01 00:41:05;;;;;;;5.55;1.73;;;17.80;99.90;;;;;;4880237;29;20053;-76
2022/08/01 00:43:51;;;;;;;2.80;1.10;;;17.70;99.90;;;;;;4895450;29;20052;-77
2022/08/01 00:46:37;;;;;;;3.90;1.45;;;17.60;99.90;;;;;;4895970;29;20064;-78
2022/08/01 00:49:24;;;;;;;5.40;1.42;;;17.60;99.90;;;;;;4895475;29;20527;-76
2022/08/01 00:52:10;;;;;;;5.30;1.10;;;17.60;99.90;;;;;;4894940;29;20059;-75
2022/08/01 00:54:56;;;;;;;6.78;1.42;;;17.60;99.90;;;;;;4894716;29;20059;-81
2022/08/01 00:57:43;;;;;;;5.22;1.38;;;17.60;99.90;;;;;;4878938;29;20121;-79
2022/08/01 01:00:29;;;;;;;10.25;2.00;;;17.60;99.90;;;;;;4895290;29;20513;-76
2022/08/01 01:03:16;;;;;;;8.32;2.03;;;17.50;99.90;;;;;;4895923;29;20051;-80
2022/08/01 01:06:33;;;;;;;8.70;1.73;;;17.50;99.90;;;;;;4893969;29;20060;-78
2022/08/01 01:10:10;;;;;;;9.93;2.03;;;17.50;99.90;;;;;;4895274;29;20568;-75
2022/08/01 01:13:05;;;;;;;9.73;1.90;;;17.50;99.90;;;;;;4879469;29;20060;-78
2022/08/01 01:16:08;;;;;;;10.90;2.25;;;17.50;99.90;;;;;;4894775;29;20053;-79
2022/08/01 01:19:03;;;;;;;8.27;1.90;;;17.50;99.90;;;;;;4896503;29;20049;-76
2022/08/01 01:22:13;;;;;;;10.95;1.77;;;17.50;99.90;;;;;;4879726;29;20052;-77
2022/08/01 01:25:08;;;;;;;11.57;2.40;;;17.50;99.90;;;;;;4878900;29;20063;-78
2022/08/01 01:28:23;;;;;;;10.75;3.17;;;17.50;99.90;;;;;;4878770;29;20058;-75
2022/08/01 01:31:12;;;;;;;15.18;3.58;;;17.50;99.90;;;;;;4897189;29;20056;-78
2022/08/01 01:34:01;;;;;;;9.43;2.65;;;17.40;99.90;;;;;;4879161;29;20065;-80
2022/08/01 01:36:49;;;;;;;12.32;3.42;;;17.40;99.90;;;;;;4895580;29;20129;-79
2022/08/01 01:39:37;;;;;;;14.43;3.17;;;17.40;99.90;;;;;;4895050;29;20525;-81
2022/08/01 01:42:25;;;;;;;7.47;2.20;;;17.30;99.90;;;;;;4895334;29;20147;-78
2022/08/01 01:45:12;;;;;;;14.50;3.67;;;17.20;99.90;;;;;;4896572;29;20049;-78
2022/08/01 01:48:00;;;;;;;14.30;3.53;;;17.20;99.90;;;;;;4883371;29;20053;-78
2022/08/01 01:50:48;;;;;;;10.23;2.88;;;17.20;99.90;;;;;;4899709;29;20045;-77
2022/08/01 01:53:35;;;;;;;11.48;3.15;;;17.20;99.90;;;;;;4900800;29;20420;-77
2022/08/01 01:56:23;;;;;;;11.13;2.72;;;17.10;99.90;;;;;;4885688;29;20057;-80
2022/08/01 01:59:09;;;;;;;7.18;2.90;;;17.10;99.90;;;;;;4882206;29;20060;-80
2022/08/01 02:02:00;;;;;;;14.13;2.97;;;17.10;99.90;;;;;;4899106;29;20044;-81
2022/08/01 02:04:48;;;;;;;9.38;2.97;;;17.10;99.90;;;;;;4899906;29;20059;-80
2022/08/01 02:07:36;;;;;;;10.10;3.03;;;17.10;99.90;;;;;;4899344;29;20085;-80
2022/08/01 02:10:24;;;;;;;14.65;3.05;;;17.10;99.90;;;;;;4882910;29;20052;-81
2022/08/01 02:13:11;;;;;;;16.73;4.45;;;17.10;99.90;;;;;;4880801;29;20135;-79
2022/08/01 02:15:58;;;;;;;11.80;3.20;;;17.10;99.90;;;;;;4898432;29;20049;-79
2022/08/01 02:18:44;;;;;;;11.75;3.10;;;17.10;99.90;;;;;;4882180;29;20135;-77
2022/08/01 02:21:37;;;;;;;12.43;3.58;;;17.10;99.90;;;;;;4897994;29;20108;-78
2022/08/01 02:24:37;;;;;;;14.90;4.05;;;17.10;99.90;;;;;;4898252;29;20424;-78
2022/08/01 02:27:34;;;;;;;14.50;3.53;;;17.10;99.90;;;;;;4899275;29;20462;-80
2022/08/01 02:30:23;;;;;;;17.17;3.30;;;17.00;99.90;;;;;;4898863;29;20072;-79
2022/08/01 02:33:16;;;;;;;15.65;3.50;;;17.00;99.90;;;;;;4898196;29;20059;-78
2022/08/01 02:36:03;;;;;;;13.25;3.42;;;17.00;99.90;;;;;;4897975;29;20135;-78
2022/08/01 02:38:50;;;;;;;15.00;2.67;;;17.00;99.90;;;;;;4897933;29;20188;-77
2022/08/01 02:41:45;;;;;;;15.10;3.10;;;17.00;99.90;;;;;;4898749;29;20057;-80
2022/08/01 02:44:35;;;;;;;16.77;3.20;;;17.00;99.90;;;;;;4899838;29;20040;-81
2022/08/01 02:47:23;;;;;;;11.90;3.40;;;16.90;99.90;;;;;;4881307;29;20057;-81
2022/08/01 02:50:13;;;;;;;17.10;3.90;;;16.90;99.90;;;;;;4896651;29;20243;-78
2022/08/01 02:53:06;;;;;;;13.52;3.95;;;16.90;99.90;;;;;;4880405;29;20563;-78
2022/08/01 02:55:53;;;;;;;18.30;4.32;;;16.90;99.90;;;;;;4883815;29;20100;-79
2022/08/01 02:58:41;;;;;;;21.70;4.10;;;16.90;99.90;;;;;;4897850;29;20543;-81
2022/08/01 03:01:28;;;;;;;17.48;3.78;;;16.90;99.90;;;;;;4881206;29;20074;-79
2022/08/01 03:04:17;;;;;;;16.73;3.72;;;16.90;99.90;;;;;;4880389;29;20056;-77
2022/08/01 03:07:05;;;;;;;19.08;3.53;;;16.80;99.90;;;;;;4897136;29;20462;-78
2022/08/01 03:09:53;;;;;;;20.80;2.97;;;16.80;99.90;;;;;;4898044;29;20072;-77
2022/08/01 03:12:40;;;;;;;15.75;2.92;;;16.70;99.90;;;;;;4897061;29;20425;-79
2022/08/01 03:15:30;;;;;;;20.98;3.95;;;16.70;99.90;;;;;;4897573;29;20063;-79
2022/08/01 03:18:18;;;;;;;18.10;3.33;;;16.70;99.90;;;;;;4896744;29;20045;-80
2022/08/01 03:21:09;;;;;;;24.38;3.83;;;16.60;99.90;;;;;;4898542;29;20056;-78
2022/08/01 03:23:59;;;;;;;18.80;4.68;;;16.70;99.90;;;;;;4899186;29;20056;-78
2022/08/01 03:26:47;;;;;;;18.85;3.17;;;16.60;99.90;;;;;;4896267;29;20075;-78
2022/08/01 03:29:34;;;;;;;15.82;3.35;;;16.60;99.90;;;;;;4896337;29;20705;-76
2022/08/01 03:32:22;;;;;;;21.60;3.75;;;16.60;99.90;;;;;;4879149;29;20060;-77
2022/08/01 03:35:08;;;;;;;22.27;3.33;;;16.60;99.90;;;;;;4880884;29;20056;-79
2022/08/01 03:37:56;;;;;;;17.27;3.97;;;16.60;99.90;;;;;;4897489;29;20057;-78
2022/08/01 03:40:49;;;;;;;22.35;4.75;;;16.60;99.90;;;;;;4882561;29;20056;-81
2022/08/01 03:43:44;;;;;;;20.45;4.40;;;16.50;99.90;;;;;;4896802;29;20056;-78
2022/08/01 03:46:40;;;;;;;20.90;3.53;;;16.40;99.90;;;;;;4896265;29;20052;-79
2022/08/01 03:49:30;;;;;;;22.60;4.28;;;16.40;99.90;;;;;;4896403;29;20107;-81
2022/08/01 03:52:17;;;;;;;15.27;3.95;;;16.30;99.90;;;;;;4897155;29;20493;-79
2022/08/01 03:55:06;;;;;;;16.65;3.83;;;16.30;99.90;;;;;;4898090;29;20052;-77
2022/08/01 03:57:53;;;;;;;19.73;3.00;;;16.30;99.90;;;;;;4917451;29;20056;-78
2022/08/01 04:00:40;;;;;;;19.42;5.10;;;16.20;99.90;;;;;;4916983;29;20595;-80
2022/08/01 04:03:27;;;;;;;17.42;3.08;;;16.20;99.90;;;;;;4914454;29;20062;-79
2022/08/01 04:06:13;;;;;;;21.45;4.00;;;16.20;99.90;;;;;;4898338;29;20123;-80
2022/08/01 04:09:00;;;;;;;18.83;3.88;;;16.20;99.90;;;;;;4898311;29;20056;-80
2022/08/01 04:11:47;;;;;;;19.40;3.20;;;16.10;99.90;;;;;;4898102;29;20111;-79
2022/08/01 04:14:33;;;;;;;22.80;4.07;;;16.10;99.90;;;;;;4914659;29;20060;-79
2022/08/01 04:17:19;;;;;;;27.10;4.05;;;16.10;99.90;;;;;;4914028;29;20048;-78
2022/08/01 04:20:05;;;;;;;18.58;3.75;;;16.20;99.90;;;;;;4914751;29;20048;-80
2022/08/01 04:22:52;;;;;;;16.70;3.25;;;16.20;99.90;;;;;;4914589;29;20063;-80
2022/08/01 04:25:42;;;;;;;14.35;2.90;;;16.20;99.90;;;;;;4914546;29;20052;-77
2022/08/01 04:28:31;;;;;;;21.30;3.45;;;16.20;99.90;;;;;;4914540;29;20108;-78
2022/08/01 04:31:18;;;;;;;19.30;3.67;;;16.20;99.90;;;;;;4915730;29;20055;-77
2022/08/01 04:34:06;;;;;;;18.00;4.05;;;16.20;99.90;;;;;;4901145;29;20063;-80
2022/08/01 04:36:55;;;;;;;15.60;3.88;;;16.20;99.90;;;;;;4898279;29;20126;-77
2022/08/01 04:39:42;;;;;;;15.85;4.15;;;16.30;99.90;;;;;;4913815;29;20532;-80
2022/08/01 04:42:33;;;;;;;26.02;3.97;;;16.30;99.90;;;;;;4914413;29;20063;-78
2022/08/01 04:45:21;;;;;;;13.45;2.88;;;16.30;99.90;;;;;;4915043;29;20056;-80
2022/08/01 04:48:08;;;;;;;18.65;3.70;;;16.30;99.90;;;;;;4914936;29;20150;-77
2022/08/01 04:50:54;;;;;;;26.35;4.50;;;16.30;99.90;;;;;;4912480;29;20099;-76
2022/08/01 04:53:42;;;;;;;14.40;3.00;;;16.30;99.90;;;;;;4914340;29;20048;-77
2022/08/01 04:56:28;;;;;;;21.15;4.05;;;16.30;99.90;;;;;;4897308;29;20055;-76
2022/08/01 05:02:19;;;;;;;18.92;4.43;;;16.30;99.90;;;;;;4914410;29;20052;-79
2022/08/01 05:05:05;;;;;;;18.05;3.00;;;16.30;99.90;;;;;;4915227;29;20048;-78
2022/08/01 05:07:52;;;;;;;17.40;3.50;;;16.40;99.90;;;;;;4915060;29;20059;-77
2022/08/01 05:10:38;;;;;;;14.07;2.70;;;16.40;99.90;;;;;;4916636;29;20048;-77
2022/08/01 05:13:25;;;;;;;13.05;3.80;;;16.40;99.90;;;;;;4900780;29;20174;-79
2022/08/01 05:16:11;;;;;;;18.80;4.18;;;16.40;99.90;;;;;;4917411;29;20079;-77
2022/08/01 05:18:57;;;;;;;16.00;3.28;;;16.40;99.90;;;;;;4914365;29;20139;-78
2022/08/01 05:21:44;;;;;;;16.63;3.53;;;16.40;99.90;;;;;;4902378;29;20120;-80
2022/08/01 05:24:35;;;;;;;17.00;3.22;;;16.40;99.90;;;;;;4919154;29;20056;-77
2022/08/01 05:27:21;;;;;;;12.88;3.05;;;16.40;99.90;;;;;;4918238;29;20126;-81
2022/08/01 05:30:08;;;;;;;14.63;3.30;;;16.40;99.90;;;;;;4901314;29;20143;-81
2022/08/01 05:32:55;;;;;;;18.10;3.13;;;16.40;99.90;;;;;;4900695;29;20187;-81
2022/08/01 05:35:41;;;;;;;15.52;2.78;;;16.40;99.90;;;;;;4918261;29;20060;-78
2022/08/01 05:38:27;;;;;;;15.38;3.35;;;16.40;99.90;;;;;;4919048;29;20040;-79
2022/08/01 05:41:13;;;;;;;15.60;2.92;;;16.40;99.90;;;;;;4921022;29;20134;-77
2022/08/01 05:44:00;;;;;;;24.23;4.00;;;16.40;99.90;;;;;;4917869;29;20080;-79
2022/08/01 05:46:46;;;;;;;17.02;3.42;;;16.40;99.90;;;;;;4917605;29;20052;-75
2022/08/01 05:49:32;;;;;;;12.95;2.50;;;16.50;99.90;;;;;;4900448;29;20064;-77
2022/08/01 05:52:22;;;;;;;16.50;2.13;;;16.50;99.90;;;;;;4881622;29;20064;-78
2022/08/01 05:55:09;;;;;;;15.20;3.08;;;16.50;99.90;;;;;;4886396;29;20092;-77
2022/08/01 05:57:55;;;;;;;10.65;2.53;;;16.50;99.90;;;;;;4898403;29;20051;-84
2022/08/01 06:00:41;;;;;;;17.30;2.83;;;16.60;99.90;;;;;;4903897;29;20053;-82
2022/08/01 06:03:30;;;;;;;13.73;2.63;;;16.60;99.90;;;;;;4902017;29;20061;-81
2022/08/01 06:06:17;;;;;;;16.38;2.47;;;16.60;99.90;;;;;;4898039;29;20049;-77
2022/08/01 06:09:03;;;;;;;13.05;3.30;;;16.60;99.90;;;;;;4898048;29;20501;-79
2022/08/01 06:11:49;;;;;;;17.65;4.07;;;16.60;99.90;;;;;;4880736;29;20610;-80
2022/08/01 06:14:35;;;;;;;17.80;3.22;;;16.70;99.90;;;;;;4898684;29;20052;-81
2022/08/01 06:17:22;;;;;;;11.38;3.15;;;16.70;99.90;;;;;;4899101;29;20095;-83
2022/08/01 06:20:08;;;;;;;13.23;2.45;;;16.80;99.90;;;;;;4897737;29;20060;-87
2022/08/01 06:22:55;;;;;;;12.75;3.13;;;16.80;99.90;;;;;;4898692;29;20056;-82
2022/08/01 06:25:41;;;;;;;13.50;2.65;;;16.80;99.90;;;;;;4899134;29;20119;-77
2022/08/01 06:28:28;;;;;;;14.20;2.72;;;16.90;99.90;;;;;;4890173;29;20064;-83
2022/08/01 06:31:15;;;;;;;16.20;3.65;;;17.10;99.90;;;;;;4882648;29;20472;-79
2022/08/01 06:34:02;;;;;;;10.60;2.22;;;17.20;99.90;;;;;;4897651;29;20161;-79
2022/08/01 06:36:51;;;;;;;12.98;2.50;;;17.30;99.90;;;;;;4898678;29;20063;-73
2022/08/01 06:39:43;;;;;;;13.68;2.80;;;17.40;99.90;;;;;;4898476;29;20056;-82
2022/08/01 06:42:34;;;;;;;15.95;3.17;;;17.40;99.90;;;;;;4881583;29;20552;-77
2022/08/01 06:45:27;;;;;;;17.27;3.15;;;17.60;99.90;;;;;;4898441;29;20117;-79
2022/08/01 06:48:16;;;;;;;12.88;1.95;;;17.70;99.90;;;;;;4897656;29;20432;-83
2022/08/01 06:51:08;;;;;;;13.18;2.53;;;17.90;99.90;;;;;;4905441;29;20080;-79
2022/08/01 06:53:56;;;;;;;11.05;1.80;;;17.90;99.90;;;;;;4916854;29;20146;-78
2022/08/01 06:56:43;;;;;;;11.73;3.08;;;18.10;99.90;;;;;;4919392;29;20052;-78
2022/08/01 06:59:29;;;;;;;15.40;2.22;;;18.20;99.90;;;;;;4918175;29;20048;-78
2022/08/01 07:02:15;;;;;;;7.75;1.95;;;18.30;99.90;;;;;;4915776;29;20045;-82
2022/08/01 07:05:03;;;;;;;12.82;3.08;;;18.30;99.90;;;;;;4885364;29;20142;-83
2022/08/01 07:07:50;;;;;;;13.63;2.13;;;18.40;99.90;;;;;;4912222;29;20044;-79
2022/08/01 07:10:36;;;;;;;9.82;2.42;;;18.50;99.90;;;;;;4917675;29;20048;-77
2022/08/01 07:13:24;;;;;;;12.15;2.22;;;18.70;99.90;;;;;;4916642;29;20123;-77
2022/08/01 07:16:11;;;;;;;7.78;1.77;;;18.90;99.90;;;;;;4918264;29;20047;-79
2022/08/01 07:18:57;;;;;;;11.20;1.92;;;19.00;99.90;;;;;;4919019;28;20048;-82
2022/08/01 07:21:44;;;;;;;14.75;1.90;;;19.00;99.90;;;;;;4916873;29;20098;-80
2022/08/01 07:24:35;;;;;;;9.65;1.67;;;18.90;99.90;;;;;;4915049;29;20044;-79
2022/08/01 07:27:24;;;;;;;10.95;1.42;;;18.80;99.90;;;;;;4918563;29;20044;-85
2022/08/01 07:30:10;;;;;;;9.85;1.90;;;19.00;99.90;;;;;;4920774;28;20087;-80
2022/08/01 07:32:57;;;;;;;9.88;1.73;;;19.10;99.90;;;;;;4917212;28;20138;-79
2022/08/01 07:35:43;;;;;;;9.88;1.85;;;19.20;99.90;;;;;;4917230;29;20143;-81
2022/08/01 07:38:29;;;;;;;27.55;3.03;;;19.40;99.90;;;;;;4917330;29;20501;-81
2022/08/01 07:41:16;;;;;;;9.75;1.75;;;19.60;99.90;;;;;;4916762;29;20048;-79
2022/08/01 07:44:02;;;;;;;12.30;1.77;;;19.90;99.90;;;;;;4916353;28;20052;-80
2022/08/01 07:46:48;;;;;;;11.20;1.98;;;19.60;99.90;;;;;;4916644;29;20052;-80
2022/08/01 07:49:35;;;;;;;10.00;2.17;;;19.50;99.90;;;;;;4916262;28;20135;-82
2022/08/01 07:52:21;;;;;;;8.70;2.03;;;19.60;99.90;;;;;;4903107;28;20085;-81
2022/08/01 07:55:08;;;;;;;19.13;2.28;;;19.80;99.90;;;;;;4898677;29;20385;-81
2022/08/01 07:57:55;;;;;;;10.70;1.77;;;20.00;99.90;;;;;;4900215;29;20049;-78
2022/08/01 08:00:41;;;;;;;9.60;1.38;;;20.30;99.90;;;;;;4900156;29;20155;-80
2022/08/01 08:03:27;;;;;;;9.93;2.15;;;20.40;99.90;;;;;;4895896;29;20139;-85
2022/08/01 08:06:13;;;;;;;10.63;1.65;;;20.60;99.90;;;;;;4897367;29;20044;-80
2022/08/01 08:09:00;;;;;;;9.80;1.88;;;20.70;99.90;;;;;;4897635;29;20056;-80
2022/08/01 08:11:46;;;;;;;13.05;1.65;;;20.80;99.90;;;;;;4898003;29;20056;-81
2022/08/01 08:14:33;;;;;;;12.07;1.55;;;20.90;99.90;;;;;;4896967;29;20053;-82
2022/08/01 08:17:19;;;;;;;10.07;1.98;;;21.00;99.90;;;;;;4896725;29;20056;-80
2022/08/01 08:20:08;;;;;;;12.90;2.75;;;20.90;99.90;;;;;;4896985;29;20053;-81
2022/08/01 08:22:55;;;;;;;8.70;2.00;;;20.90;99.90;;;;;;4901186;29;20112;-83
2022/08/01 08:25:41;;;;;;;8.10;1.63;;;21.30;99.90;;;;;;4896742;29;20111;-78
2022/08/01 08:28:28;;;;;;;15.15;2.70;;;21.30;99.90;;;;;;4897295;29;20568;-77
2022/08/01 08:31:14;;;;;;;8.73;1.77;;;21.20;99.90;;;;;;4899347;29;20052;-77
2022/08/01 08:34:00;;;;;;;9.88;1.38;;;21.00;99.90;;;;;;4899329;29;20057;-79
2022/08/01 08:36:47;;;;;;;7.82;1.88;;;21.00;99.90;;;;;;4900142;29;20402;-77
2022/08/01 08:39:33;;;;;;;11.30;1.83;;;20.90;99.90;;;;;;4896003;29;20056;-79
2022/08/01 08:42:20;;;;;;;12.20;1.88;;;20.80;99.90;;;;;;4897039;29;20058;-78
2022/08/01 08:45:06;;;;;;;11.15;2.15;;;20.90;99.90;;;;;;4895539;29;20045;-80
2022/08/01 08:47:55;;;;;;;9.35;1.55;;;21.10;99.90;;;;;;4880603;29;20528;-79
2022/08/01 08:50:46;;;;;;;11.57;1.65;;;21.20;99.70;;;;;;4895683;29;20513;-79
2022/08/01 08:53:33;;;;;;;11.57;1.45;;;21.40;99.90;;;;;;4895116;29;20517;-78
2022/08/01 08:56:19;;;;;;;10.18;1.80;;;21.50;99.70;;;;;;4898884;29;20426;-80
2022/08/01 08:59:05;;;;;;;10.00;1.85;;;21.30;99.20;;;;;;4900539;29;20045;-78
2022/08/01 09:01:52;;;;;;;12.23;1.48;;;21.70;99.90;;;;;;4898962;29;20516;-78
2022/08/01 09:04:39;;;;;;;12.00;1.40;;;21.70;98.90;;;;;;4900225;29;20049;-77
2022/08/01 09:07:26;;;;;;;7.88;1.50;;;21.70;98.40;;;;;;4898525;29;20112;-77
2022/08/01 09:10:12;;;;;;;10.27;1.75;;;21.70;97.80;;;;;;4899544;29;20080;-77
2022/08/01 09:13:15;;;;;;;10.10;2.25;;;21.70;98.30;;;;;;4900768;29;20123;-79
2022/08/01 09:16:01;;;;;;;12.30;1.80;;;21.90;96.40;;;;;;4885564;29;20056;-78
2022/08/01 09:18:47;;;;;;;14.73;1.85;;;22.00;98.40;;;;;;4899871;29;20485;-77
2022/08/01 09:21:34;;;;;;;8.20;1.70;;;22.20;97.70;;;;;;4899226;29;20052;-78
2022/08/01 09:24:20;;;;;;;13.00;1.60;;;22.30;98.00;;;;;;4898926;29;20159;-80
2022/08/01 09:27:23;;;;;;;5.47;1.23;;;22.00;97.60;;;;;;4900513;29;20055;-80
2022/08/01 09:30:13;;;;;;;8.10;1.13;;;21.80;95.70;;;;;;4900178;29;20048;-83
2022/08/01 09:33:02;;;;;;;10.15;1.17;;;21.80;96.90;;;;;;4899629;29;20112;-80
2022/08/01 09:35:57;;;;;;;6.38;2.13;;;21.50;96.60;;;;;;4899975;29;20107;-79
2022/08/01 09:38:43;;;;;;;9.93;1.63;;;21.50;96.80;;;;;;4899595;29;20505;-77
2022/08/01 09:41:31;;;;;;;10.07;1.65;;;21.80;96.30;;;;;;4899393;29;20076;-79
2022/08/01 09:44:20;;;;;;;6.97;1.30;;;21.90;96.50;;;;;;4899277;29;20056;-80
2022/08/01 09:47:10;;;;;;;11.25;1.83;;;22.10;96.70;;;;;;4901243;29;20508;-81
2022/08/01 09:49:57;;;;;;;6.47;1.50;;;22.20;96.20;;;;;;4901259;29;20048;-80
2022/08/01 09:52:54;;;;;;;7.30;1.33;;;22.20;96.40;;;;;;4899957;29;20053;-80
2022/08/01 09:55:41;;;;;;;7.95;1.70;;;22.00;95.30;;;;;;4898972;29;20067;-79
2022/08/01 09:58:27;;;;;;;11.98;2.13;;;22.00;95.80;;;;;;4899503;29;20105;-80
2022/08/01 10:01:13;;;;;;;7.63;1.40;;;22.20;95.60;;;;;;4899902;29;20075;-80
2022/08/01 10:04:12;;;;;;;10.63;1.90;;;22.60;95.20;;;;;;4899272;29;20044;-84
2022/08/01 10:07:07;;;;;;;7.15;1.63;;;22.90;94.40;;;;;;4903031;29;20052;-79
2022/08/01 10:09:53;;;;;;;8.57;1.50;;;22.80;94.60;;;;;;4901541;29;20053;-81
2022/08/01 10:12:40;;;;;;;7.80;1.27;;;23.00;95.20;;;;;;4901146;29;20048;-80
2022/08/01 10:15:27;;;;;;;7.35;1.33;;;23.10;94.50;;;;;;4885423;29;20413;-81
2022/08/01 10:18:13;;;;;;;9.18;1.73;;;23.10;94.60;;;;;;4885435;29;20108;-83
2022/08/01 10:21:04;;;;;;;4.93;1.17;;;23.10;95.00;;;;;;4869541;29;20056;-82
2022/08/01 10:23:50;;;;;;;6.78;1.27;;;23.50;94.70;;;;;;4898848;29;20056;-81
2022/08/01 10:26:38;;;;;;;13.75;1.58;;;23.60;93.90;;;;;;4869330;29;20152;-79
2022/08/01 10:29:26;;;;;;;7.13;1.23;;;23.90;93.60;;;;;;4882573;29;20052;-79
2022/08/01 10:32:13;;;;;;;6.03;1.20;;;23.90;91.80;;;;;;4898366;29;20067;-78
2022/08/01 10:35:00;;;;;;;8.73;1.48;;;24.10;91.60;;;;;;4881718;29;20049;-79
2022/08/01 10:37:51;;;;;;;8.65;1.50;;;24.20;91.90;;;;;;4897139;29;20049;-79
2022/08/01 10:40:39;;;;;;;13.20;1.75;;;24.40;92.20;;;;;;4881821;29;20052;-79
2022/08/01 10:43:25;;;;;;;11.05;1.50;;;24.80;92.50;;;;;;4898382;29;20048;-78
2022/08/01 10:46:11;;;;;;;7.57;1.40;;;25.30;91.70;;;;;;4898572;29;20120;-78
2022/08/01 10:49:20;;;;;;;8.40;1.38;;;25.30;91.60;;;;;;4898641;29;20123;-78
2022/08/01 10:52:06;;;;;;;6.97;1.63;;;25.40;91.70;;;;;;4884032;29;20108;-76
2022/08/01 10:55:03;;;;;;;9.10;1.30;;;25.60;91.10;;;;;;4882224;29;20056;-79
2022/08/01 10:57:49;;;;;;;7.70;1.83;;;26.00;92.10;;;;;;4897997;29;20136;-81
2022/08/01 11:00:35;;;;;;;8.52;1.27;;;26.30;91.30;;;;;;4884640;29;20057;-79
2022/08/01 11:03:34;;;;;;;7.45;1.27;;;26.40;90.50;;;;;;4900382;29;20052;-79
2022/08/01 11:06:33;;;;;;;7.63;1.60;;;26.60;86.20;;;;;;4901886;29;20049;-80
2022/08/01 11:09:47;;;;;;;6.57;1.60;;;26.70;90.70;;;;;;4903673;29;20080;-78
2022/08/01 11:12:41;;;;;;;9.23;1.40;;;26.50;87.70;;;;;;4903341;29;20056;-79
2022/08/01 11:15:27;;;;;;;8.30;1.70;;;26.80;86.80;;;;;;4882347;29;20060;-79
2022/08/01 11:18:30;;;;;;;8.70;1.45;;;27.20;85.70;;;;;;4895592;29;20056;-81
2022/08/01 11:21:18;;;;;;;7.75;1.50;;;27.50;82.00;;;;;;4896995;29;20048;-83
2022/08/01 11:24:05;;;;;;;7.07;1.48;;;26.80;82.50;;;;;;4896883;29;20049;-81
2022/08/01 11:27:21;;;;;;;5.43;0.85;;;26.70;81.40;;;;;;4880939;29;20379;-83
2022/08/01 11:30:10;;;;;;;5.72;1.25;;;26.20;77.50;;;;;;4898886;29;20570;-79
2022/08/01 11:32:57;;;;;;;7.25;1.10;;;25.70;78.90;;;;;;4881287;29;20059;-83
2022/08/01 11:36:15;;;;;;;8.90;1.42;;;25.60;81.30;;;;;;4897512;29;20216;-78
2022/08/01 11:39:04;;;;;;;12.15;1.90;;;25.70;80.50;;;;;;4895502;29;20044;-81
2022/08/01 11:41:52;;;;;;;5.35;1.08;;;26.00;77.10;;;;;;4897020;29;20520;-84
2022/08/01 11:44:51;;;;;;;8.10;1.48;;;26.40;80.60;;;;;;4880844;29;20057;-81
2022/08/01 11:47:51;;;;;;;5.57;1.30;;;26.20;76.50;;;;;;4896767;29;20060;-79
2022/08/01 11:50:38;;;;;;;6.57;1.10;;;26.40;78.10;;;;;;4898002;29;20055;-76
2022/08/01 11:53:24;;;;;;;5.05;1.65;;;26.10;76.10;;;;;;4897575;29;20139;-77
2022/08/01 11:56:10;;;;;;;3.58;0.80;;;25.90;73.90;;;;;;4895806;29;20143;-77
2022/08/01 11:58:59;;;;;;;5.82;1.17;;;26.40;76.20;;;;;;4896554;29;20059;-78
2022/08/01 12:01:47;;;;;;;4.85;1.00;;;26.80;74.70;;;;;;4896579;29;20044;-80
2022/08/01 12:04:56;;;;;;;7.30;1.20;;;27.10;74.60;;;;;;4898038;29;20072;-80
2022/08/01 12:07:44;;;;;;;9.48;1.27;;;27.30;72.40;;;;;;4903497;29;20057;-79
2022/08/01 12:10:36;;;;;;;6.90;0.95;;;27.40;74.10;;;;;;4898942;29;20060;-86
2022/08/01 12:13:22;;;;;;;6.95;1.20;;;26.90;74.00;;;;;;4895452;29;20040;-78
2022/08/01 12:16:10;;;;;;;4.25;0.90;;;27.00;71.70;;;;;;4878002;29;20792;-78
2022/08/01 12:18:56;;;;;;;7.15;1.70;;;27.50;73.10;;;;;;4893865;29;20128;-77
2022/08/01 12:21:42;;;;;;;10.15;1.30;;;28.10;73.70;;;;;;4877591;29;20481;-79
2022/08/01 12:24:28;;;;;;;6.93;1.42;;;28.10;71.70;;;;;;4878557;29;20104;-81
2022/08/01 12:27:25;;;;;;;7.97;1.30;;;28.20;69.40;;;;;;4894416;29;20052;-79
2022/08/01 12:30:16;;;;;;;8.30;1.10;;;27.90;68.20;;;;;;4895525;29;20044;-76
2022/08/01 12:33:04;;;;;;;7.63;1.30;;;27.50;67.70;;;;;;4895725;29;20049;-80
2022/08/01 12:35:52;;;;;;;6.82;1.10;;;27.80;69.90;;;;;;4877683;29;20056;-81
2022/08/01 12:38:38;;;;;;;7.43;1.50;;;27.80;71.70;;;;;;4895601;29;20119;-79
2022/08/01 12:41:25;;;;;;;6.13;1.27;;;28.10;72.30;;;;;;4896119;29;20052;-81
2022/08/01 12:44:15;;;;;;;9.15;1.73;;;28.00;69.80;;;;;;4896139;29;20139;-78
2022/08/01 12:47:03;;;;;;;4.57;1.13;;;28.20;69.70;;;;;;4897559;29;20049;-79
2022/08/01 12:49:50;;;;;;;7.57;1.42;;;28.30;69.40;;;;;;4899049;29;20136;-77
2022/08/01 12:52:37;;;;;;;9.25;1.42;;;28.00;68.80;;;;;;4878833;29;20067;-77
2022/08/01 12:55:25;;;;;;;7.60;1.35;;;28.30;68.90;;;;;;4895790;29;20052;-75
2022/08/01 12:58:14;;;;;;;9.10;1.30;;;28.80;70.80;;;;;;4879223;29;20063;-77
2022/08/01 13:01:06;;;;;;;7.43;1.00;;;28.80;67.60;;;;;;4878861;29;20057;-77
2022/08/01 13:04:06;;;;;;;8.10;1.48;;;29.00;65.20;;;;;;4878313;29;20052;-78
2022/08/01 13:06:56;;;;;;;7.82;1.27;;;29.00;65.80;;;;;;4878965;29;20067;-78
2022/08/01 13:09:51;;;;;;;9.10;1.42;;;28.40;64.50;;;;;;4895653;29;20450;-76
2022/08/01 13:12:39;;;;;;;6.53;0.95;;;28.00;66.80;;;;;;4895927;29;20581;-78
2022/08/01 13:15:31;;;;;;;9.18;1.65;;;28.10;66.20;;;;;;4895883;29;20775;-77
2022/08/01 13:18:32;;;;;;;11.40;1.58;;;27.80;65.30;;;;;;4898580;29;20051;-77
2022/08/01 13:21:23;;;;;;;11.63;1.85;;;28.50;67.40;;;;;;4895715;29;20084;-78
2022/08/01 13:24:13;;;;;;;7.75;1.40;;;28.50;65.30;;;;;;4866621;29;20131;-77
2022/08/01 13:27:03;;;;;;;7.40;1.70;;;28.80;66.00;;;;;;4878477;29;20058;-77
2022/08/01 13:29:52;;;;;;;8.93;2.28;;;29.20;64.50;;;;;;4893586;29;20063;-76
2022/08/01 13:32:39;;;;;;;9.15;1.70;;;29.10;64.80;;;;;;4894939;29;20391;-77
2022/08/01 13:35:27;;;;;;;8.25;1.63;;;29.60;62.60;;;;;;4895531;29;20179;-76
2022/08/01 13:38:13;;;;;;;9.05;1.70;;;29.30;62.60;;;;;;4877862;29;20044;-78
2022/08/01 13:40:59;;;;;;;5.88;1.27;;;29.60;64.80;;;;;;4881967;29;20055;-76
2022/08/01 13:43:46;;;;;;;8.77;1.63;;;29.70;62.00;;;;;;4882634;29;20052;-79
2022/08/01 13:46:32;;;;;;;9.25;1.50;;;30.20;62.50;;;;;;4880494;29;20442;-78
2022/08/01 13:49:18;;;;;;;6.00;1.35;;;30.70;61.80;;;;;;4898716;29;20064;-78
2022/08/01 13:52:08;;;;;;;3.63;0.90;;;30.50;60.50;;;;;;4881359;29;20425;-80
2022/08/01 13:54:55;;;;;;;8.52;1.52;;;30.90;59.90;;;;;;4865724;29;20053;-81
2022/08/01 13:57:41;;;;;;;6.25;1.45;;;30.90;58.80;;;;;;4884309;29;20116;-78
2022/08/01 14:00:27;;;;;;;6.35;1.45;;;30.60;57.90;;;;;;4882502;29;20056;-81
2022/08/01 14:03:13;;;;;;;10.50;1.85;;;30.20;59.90;;;;;;4881147;29;20101;-78
2022/08/01 14:06:00;;;;;;;4.35;1.33;;;30.20;59.00;;;;;;4878439;29;20060;-80
2022/08/01 14:08:55;;;;;;;8.05;1.92;;;29.90;57.60;;;;;;4879927;29;20060;-79
2022/08/01 14:11:42;;;;;;;6.40;1.25;;;30.00;58.90;;;;;;4879913;29;20053;-80
2022/08/01 14:14:28;;;;;;;6.13;1.05;;;30.80;58.00;;;;;;4863255;29;20568;-78
2022/08/01 14:17:14;;;;;;;7.38;1.35;;;31.40;58.00;;;;;;4878725;29;20071;-77
2022/08/01 14:20:02;;;;;;;6.45;1.48;;;32.40;55.90;;;;;;4863931;29;20061;-78
2022/08/01 14:22:49;;;;;;;9.57;2.05;;;32.80;56.20;;;;;;4881154;29;20489;-80
2022/08/01 14:25:40;;;;;;;6.93;1.30;;;33.70;54.20;;;;;;4879202;29;20502;-82
2022/08/01 14:28:27;;;;;;;9.00;1.70;;;33.40;53.40;;;;;;4865853;29;20045;-80
2022/08/01 14:31:14;;;;;;;5.97;1.42;;;33.60;52.50;;;;;;4884023;29;20063;-80
2022/08/01 14:34:01;;;;;;;6.85;1.33;;;33.90;50.70;;;;;;4880195;29;20049;-77
2022/08/01 14:36:47;;;;;;;6.85;1.40;;;34.20;51.00;;;;;;4880263;29;20052;-80